Latest Weather Observations for Hunters Hill

IDV60801

Issued at 9:02 am EST Monday 6 July 2015 (issued every 30 minutes, with the page automatically refreshed every 10 minutes)

About weather observations | Map of weather stations | Latest weather observations for VIC | Other Formats
Station Details ID: 082139 Name: HUNTERS HILL Lat: -36.21 Lon: 147.54 Height: 981.0 m
Data from the previous 72 hours. | See also: Recent months at Hunters Hill
Date/Time
EST
Temp
°C
App
Temp
°C
Dew
Point
Rel
Hum
%
Delta-T
°C
Wind Press
QNH
hPa
Press
MSL
hPa
Rain
since 9 am
mm
Dir
 
Spd
km/h
Gust
km/h
Spd
kts
Gust
kts
06/09:00am 1.9 -0.2 1.8 99 0.0 SW 2 4 1 2 - - 0.0
06/08:30am 2.0 -0.1 1.9 99 0.0 SW 2 4 1 2 - - 0.0
06/08:00am 1.8 -0.3 1.7 99 0.0 SW 2 4 1 2 - - 0.0
06/07:30am 1.8 -0.7 1.7 99 0.0 SW 4 6 2 3 - - 0.0
06/07:00am 1.8 -0.3 1.7 99 0.0 SW 2 7 1 4 - - 0.0
06/06:30am 1.8 -0.7 1.7 99 0.0 SW 4 7 2 4 - - 0.0
06/06:00am 1.9 -0.2 1.8 99 0.0 SW 2 4 1 2 - - 0.0
06/05:30am 2.0 -0.1 1.9 99 0.0 SW 2 6 1 3 - - 0.0
06/05:00am 2.0 -0.4 1.9 99 0.0 SW 4 9 2 5 - - 0.0
06/04:30am 2.1 -0.3 2.0 99 0.0 SW 4 7 2 4 - - 0.0
06/04:00am 2.2 -0.2 2.1 99 0.0 SW 4 9 2 5 - - 0.0
06/03:30am 2.3 0.3 2.2 99 0.0 SW 2 4 1 2 - - 0.0
06/03:00am 2.3 0.3 2.2 99 0.0 SW 2 6 1 3 - - 0.0
06/02:30am 2.4 0.8 2.3 99 0.0 CALM 0 2 0 1 - - 0.0
06/02:00am 2.5 0.9 2.4 99 0.0 CALM 0 0 0 0 - - 0.0
06/01:30am 2.5 0.1 2.4 99 0.0 SW 4 7 2 4 - - 0.0
06/01:00am 2.6 1.0 2.5 99 0.0 CALM 0 2 0 1 - - 0.0
06/12:30am 2.7 0.4 2.6 99 0.0 SW 4 6 2 3 - - 0.0
06/12:00am 2.8 0.5 2.7 99 0.0 SW 4 7 2 4 - - 0.0
 
Date/Time
EST
Temp
°C
App
Temp
°C
Dew
Point
Rel
Hum
%
Delta-T
°C
Wind Press
QNH
hPa
Press
MSL
hPa
Rain
since 9 am
mm
Dir
 
Spd
km/h
Gust
km/h
Spd
kts
Gust
kts
05/11:30pm 2.9 0.6 2.5 97 0.2 SW 4 9 2 5 - - 0.0
05/11:00pm 2.6 0.3 2.5 99 0.0 SW 4 7 2 4 - - 0.0
05/10:30pm 2.3 -0.1 2.2 99 0.0 SW 4 7 2 4 - - 0.0
05/10:00pm 1.8 -0.7 1.7 99 0.0 SW 4 6 2 3 - - 0.0
05/09:30pm 2.1 0.0 2.0 99 0.0 SW 2 6 1 3 - - 0.0
05/09:00pm 2.3 0.7 2.2 99 0.0 CALM 0 0 0 0 - - 0.0
05/08:30pm 3.0 1.4 2.7 98 0.1 CALM 0 2 0 1 - - 0.0
05/08:00pm 3.2 1.2 2.5 95 0.3 SW 2 4 1 2 - - 0.0
05/07:30pm 3.5 2.1 3.4 99 0.0 CALM 0 2 0 1 - - 0.0
05/07:00pm 3.5 2.1 3.4 99 0.0 CALM 0 2 0 1 - - 0.0
05/06:30pm 3.6 2.2 3.5 99 0.0 CALM 0 0 0 0 - - 0.0
05/06:00pm 3.6 2.2 3.5 99 0.0 CALM 0 0 0 0 - - 0.0
05/05:30pm 3.8 2.4 3.7 99 0.0 CALM 0 0 0 0 - - 0.0
05/05:00pm 4.2 2.3 2.7 90 0.6 SW 2 4 1 2 - - 0.0
05/04:30pm 4.3 2.2 3.9 97 0.2 SW 4 6 2 3 - - 0.0
05/04:00pm 4.7 2.4 3.0 89 0.7 SW 4 7 2 4 - - 0.0
05/03:30pm 5.2 3.0 3.5 89 0.8 SW 4 6 2 3 - - 0.0
05/03:00pm 5.2 2.9 2.7 84 1.1 SW 4 9 2 5 - - 0.0
05/02:30pm 6.8 5.2 4.5 85 1.1 SW 2 11 1 6 - - 0.0
05/02:00pm 5.9 3.2 2.7 80 1.4 SW 6 9 3 5 - - 0.0
05/01:30pm 6.1 4.0 4.1 87 0.9 SW 4 9 2 5 - - 0.0
05/01:00pm 4.6 2.4 3.4 92 0.5 SW 4 9 2 5 - - 0.0
05/12:30pm 4.0 1.9 3.9 99 0.0 SW 4 6 2 3 - - 0.0
05/12:00pm 3.3 1.1 3.2 99 0.0 SW 4 6 2 3 - - 0.0
05/11:30am 3.3 1.1 3.2 99 0.0 SW 4 9 2 5 - - 0.0
05/11:00am 3.1 1.2 3.1 100 0.0 SW 2 4 1 2 - - 0.0
05/10:30am 2.5 0.5 2.5 100 0.0 SW 2 4 1 2 - - 0.0
05/10:00am 2.0 0.3 2.0 100 0.0 CALM 0 0 0 0 - - 0.0
05/09:30am 1.7 -0.4 1.7 100 0.0 SW 2 4 1 2 - - 0.0
05/09:00am 1.6 -0.1 1.6 100 0.0 CALM 0 0 0 0 - - 0.0
05/08:30am 1.5 -0.6 1.5 100 0.0 SW 2 6 1 3 - - 0.0
05/08:00am 1.3 -0.9 1.3 100 0.0 SW 2 4 1 2 - - 0.0
05/07:30am 1.3 -0.9 1.3 100 0.0 SW 2 6 1 3 - - 0.0
05/07:00am 1.3 -0.9 1.3 100 0.0 SW 2 6 1 3 - - 0.0
05/06:30am 1.5 -1.0 1.5 100 0.0 SW 4 6 2 3 - - 0.0
05/06:00am 1.6 -1.3 1.6 100 0.0 SW 6 11 3 6 - - 0.0
05/05:30am 1.7 -0.8 1.7 100 0.0 SW 4 7 2 4 - - 0.0
05/05:00am 1.7 -1.2 1.7 100 0.0 WSW 6 11 3 6 - - 0.0
05/04:30am 1.9 -0.5 1.9 100 0.0 WSW 4 7 2 4 - - 0.0
05/04:00am 2.0 -0.8 2.0 100 0.0 WSW 6 11 3 6 - - 0.0
05/03:30am 1.7 -0.8 1.7 100 0.0 WSW 4 6 2 3 - - 0.0
05/03:00am 1.2 -0.6 1.2 100 0.0 CALM 0 2 0 1 - - 0.0
05/02:30am 0.8 -1.4 0.8 100 0.0 WSW 2 4 1 2 - - 0.0
05/02:00am 0.8 -1.1 0.8 100 0.0 CALM 0 2 0 1 - - 0.0
05/01:30am 1.0 -1.2 1.0 100 0.0 WSW 2 4 1 2 - - 0.0
05/01:00am 1.1 -0.7 1.1 100 0.0 CALM 0 2 0 1 - - 0.0
05/12:30am 0.8 -1.4 0.8 100 0.0 WSW 2 4 1 2 - - 0.0
05/12:00am 0.8 -1.8 0.8 100 0.0 WSW 4 6 2 3 - - 0.0
 
Date/Time
EST
Temp
°C
App
Temp
°C
Dew
Point
Rel
Hum
%
Delta-T
°C
Wind Press
QNH
hPa
Press
MSL
hPa
Rain
since 9 am
mm
Dir
 
Spd
km/h
Gust
km/h
Spd
kts
Gust
kts
04/11:30pm 1.1 -1.5 1.1 100 0.0 WSW 4 7 2 4 - - 0.0
04/11:00pm 1.5 -1.4 1.5 100 0.0 WSW 6 9 3 5 - - 0.0
04/10:30pm 1.3 -1.6 1.2 99 0.0 WSW 6 7 3 4 - - 0.0
04/10:00pm 1.4 -0.4 1.3 99 0.0 CALM 0 4 0 2 - - 0.0
04/09:30pm 1.7 0.0 1.6 99 0.0 CALM 0 0 0 0 - - 0.0
04/09:00pm 1.7 0.0 1.6 99 0.0 CALM 0 0 0 0 - - 0.0
04/08:30pm 1.6 -0.2 1.5 99 0.0 CALM 0 0 0 0 - - 0.0
04/08:00pm 1.8 0.1 1.7 99 0.0 CALM 0 0 0 0 - - 0.0
04/07:30pm 1.8 0.1 1.7 99 0.0 CALM 0 2 0 1 - - 0.0
04/07:00pm 1.6 -1.3 1.5 99 0.0 WSW 6 9 3 5 - - 0.0
04/06:30pm 1.5 -1.0 1.4 99 0.0 WSW 4 7 2 4 - - 0.0
04/06:00pm 1.6 -0.9 1.5 99 0.0 WSW 4 7 2 4 - - 0.0
04/05:30pm 1.9 -0.2 1.8 99 0.0 WSW 2 6 1 3 - - 0.0
04/05:00pm 2.3 -0.1 2.2 99 0.0 WSW 4 9 2 5 - - 0.0
04/04:30pm 2.5 -0.4 1.6 94 0.4 WSW 6 9 3 5 - - 0.0
04/04:00pm 3.5 1.0 1.7 88 0.8 WSW 4 7 2 4 - - 0.0
04/03:30pm 3.4 1.0 1.9 90 0.6 WSW 4 7 2 4 - - 0.0
04/03:00pm 3.5 0.9 1.1 84 1.0 WSW 4 6 2 3 - - 0.0
04/02:30pm 3.6 0.4 0.7 81 1.2 W 7 13 4 7 - - 0.0
04/02:00pm 4.3 1.4 1.3 81 1.3 WNW 6 9 3 5 - - 0.0
04/01:30pm 4.0 1.0 1.0 81 1.2 SW 6 13 3 7 - - 0.0
04/01:00pm 3.9 1.2 0.1 76 1.5 SW 4 9 2 5 - - 0.0
04/12:30pm 4.1 1.8 0.1 75 1.6 SW 2 6 1 3 - - 0.0
04/12:00pm 3.2 0.1 -0.1 79 1.3 SW 6 9 3 5 - - 0.0
04/11:30am 2.6 -0.5 0.3 85 0.9 SW 6 11 3 6 - - 0.0
04/11:00am 2.3 -1.0 -0.1 84 0.9 WSW 7 15 4 8 - - 0.0
04/10:30am 1.7 -1.4 -0.1 88 0.7 WSW 6 11 3 6 - - 0.0
04/10:00am 0.4 -2.4 -0.6 93 0.4 WSW 4 6 2 3 - - 0.0
04/09:30am 0.4 -2.8 -0.7 92 0.4 WSW 6 11 3 6 - - 0.0
04/09:00am 0.2 -3.2 -0.8 93 0.4 WSW 7 15 4 8 - - 0.2
04/08:30am 0.0 -3.3 -1.0 93 0.4 WSW 6 11 3 6 - - 0.2
04/08:00am -0.2 -3.5 -1.2 93 0.4 WSW 6 9 3 5 - - 0.2
04/07:30am -0.5 -3.8 -1.3 94 0.3 WSW 6 9 3 5 - - 0.2
04/07:00am -0.6 -3.9 -1.6 93 0.3 WSW 6 9 3 5 - - 0.2
04/06:30am -0.1 -3.4 -1.4 91 0.5 WSW 6 9 3 5 - - 0.2
04/06:00am -0.4 -3.7 -1.5 92 0.4 WSW 6 9 3 5 - - 0.2
04/05:30am -0.3 -3.3 -1.7 90 0.5 WSW 4 7 2 4 - - 0.2
04/05:00am -0.3 -3.6 -1.6 91 0.5 WSW 6 9 3 5 - - 0.2
04/04:30am -0.2 -3.1 -1.2 93 0.4 WSW 4 7 2 4 - - 0.2
04/04:00am -0.5 -3.4 -1.3 94 0.3 WSW 4 9 2 5 - - 0.2
04/03:30am -0.2 -2.7 -1.2 93 0.4 WSW 2 6 1 3 - - 0.2
04/03:00am -0.1 -3.0 -1.1 93 0.4 WSW 4 9 2 5 - - 0.2
04/02:30am 0.2 -3.3 -1.4 89 0.6 WSW 7 13 4 7 - - 0.2
04/02:00am -0.1 -3.4 -1.5 90 0.5 WSW 6 13 3 7 - - 0.2
04/01:30am 0.3 -3.0 -1.4 88 0.7 WSW 6 9 3 5 - - 0.2
04/01:00am 0.0 -3.5 -1.3 91 0.5 WSW 7 13 4 7 - - 0.2
04/12:30am 0.0 -3.5 -1.1 92 0.4 WSW 7 15 4 8 - - 0.2
04/12:00am 0.0 -3.4 -0.6 96 0.2 ESE 7 11 4 6 - - 0.2
 
Date/Time
EST
Temp
°C
App
Temp
°C
Dew
Point
Rel
Hum
%
Delta-T
°C
Wind Press
QNH
hPa
Press
MSL
hPa
Rain
since 9 am
mm
Dir
 
Spd
km/h
Gust
km/h
Spd
kts
Gust
kts
03/11:30pm -0.2 -3.4 -0.5 98 0.1 ESE 6 7 3 4 - - 0.2
03/11:00pm -0.3 -3.6 -0.9 96 0.2 ESE 6 9 3 5 - - 0.2
03/10:30pm -0.3 -3.2 -1.0 95 0.2 ESE 4 7 2 4 - - 0.2
03/10:00pm -0.2 -3.4 -0.8 96 0.2 ESE 6 7 3 4 - - 0.2
03/09:30pm -0.2 -3.1 -1.0 94 0.3 ESE 4 6 2 3 - - 0.2
03/09:00pm 0.0 -2.5 -1.1 92 0.4 ESE 2 4 1 2 - - 0.2
03/08:30pm -0.1 -3.0 -1.4 91 0.5 ESE 4 6 2 3 - - 0.2
03/08:00pm -0.1 -3.1 -1.5 90 0.5 ESE 4 7 2 4 - - 0.2
03/07:30pm 0.1 -3.2 -1.6 88 0.6 ESE 6 9 3 5 - - 0.2
03/07:00pm 0.4 -3.1 -1.5 87 0.7 ESE 7 11 4 6 - - 0.2
03/06:30pm 0.6 -2.4 -1.5 86 0.8 ESE 4 7 2 4 - - 0.2
03/06:00pm 0.5 -2.8 -1.1 89 0.6 ESE 6 11 3 6 - - 0.2
03/05:30pm 0.4 -2.5 -0.9 91 0.5 ESE 4 7 2 4 - - 0.2
03/05:00pm 1.1 -1.8 -1.0 86 0.8 ESE 4 7 2 4 - - 0.2
03/04:30pm 1.9 -0.9 -0.5 84 0.9 ESE 4 9 2 5 - - 0.2
03/04:00pm 2.0 -1.3 -1.2 79 1.2 ESE 6 13 3 7 - - 0.2
03/03:30pm 2.3 -0.9 -0.3 83 1.0 ESE 6 7 3 4 - - 0.2
03/03:00pm 2.6 -0.1 0.2 84 1.0 ESE 4 9 2 5 - - 0.2
03/02:30pm 3.0 0.4 0.7 85 0.9 ESE 4 7 2 4 - - 0.2
03/02:00pm 3.9 1.6 0.4 78 1.4 ESE 2 9 1 5 - - 0.2
03/01:30pm 5.0 2.8 0.8 74 1.7 ESE 2 4 1 2 - - 0.2
03/01:00pm 4.3 2.1 1.0 79 1.4 ESE 2 6 1 3 - - 0.2
03/12:30pm 4.7 2.4 0.3 73 1.8 ESE 2 4 1 2 - - 0.2
03/12:00pm 4.6 2.3 0.7 76 1.6 ESE 2 6 1 3 - - 0.2
03/11:30am 3.1 0.3 -0.5 77 1.4 ESE 4 7 2 4 - - 0.2
03/11:00am 3.0 0.6 -0.3 79 1.3 ESE 2 6 1 3 - - 0.2
03/10:30am 2.7 0.3 -0.2 81 1.1 ESE 2 2 1 1 - - 0.2
03/10:00am 1.9 -0.7 -1.5 78 1.3 ESE 2 6 1 3 - - 0.2
03/09:30am 0.8 -2.1 -1.3 86 0.8 ESE 4 9 2 5 - - 0.0

Other Formats:

Comma delimited format used in spreadsheet applications
http://www.bom.gov.au/fwo/IDV60801/IDV60801.94878.axf

JavaScript Object Notation format (JSON) in row-major order
http://www.bom.gov.au/fwo/IDV60801/IDV60801.94878.json